createdAt,value
2018-11-23T00:00:35.988Z,45.29
2018-11-23T00:01:36.190Z,44.82
2018-11-23T00:02:36.161Z,45.01
2018-11-23T00:03:36.139Z,44.63
2018-11-23T00:04:36.122Z,44.53
2018-11-23T00:05:36.096Z,44.34
2018-11-23T00:06:36.067Z,43.87
2018-11-23T00:07:35.797Z,43.77
2018-11-23T00:08:35.773Z,43.4
2018-11-23T00:09:35.750Z,42.83
2018-11-23T00:10:35.972Z,42.55
2018-11-23T00:11:35.699Z,42.45
2018-11-23T00:12:35.685Z,41.89
2018-11-23T00:13:35.654Z,41.51
2018-11-23T00:14:35.634Z,41.41
2018-11-23T00:15:35.603Z,41.03
2018-11-23T00:16:35.584Z,41.03
2018-11-23T00:17:35.580Z,41.22
2018-11-23T00:18:35.791Z,41.03
2018-11-23T00:19:35.516Z,41.13
2018-11-23T00:20:35.494Z,40.84
2018-11-23T00:21:35.505Z,40.84
2018-11-23T00:22:35.705Z,40.75
2018-11-23T00:23:35.424Z,40.66
2018-11-23T00:24:35.695Z,40.75
2018-11-23T00:25:35.634Z,40.66
2018-11-23T00:26:35.608Z,40.47
2018-11-23T00:27:35.342Z,40.66
2018-11-23T00:28:35.563Z,40.66
2018-11-23T00:29:35.538Z,40.56
2018-11-23T00:30:35.513Z,40.75
2018-11-23T00:31:35.497Z,40.56
2018-11-23T00:32:35.216Z,40.56
2018-11-23T00:33:35.196Z,40.56
2018-11-23T00:34:35.423Z,40.75
2018-11-23T00:35:35.147Z,40.75
2018-11-23T00:36:35.381Z,40.84
2018-11-23T00:37:35.105Z,40.75
2018-11-23T00:38:35.076Z,40.75
2018-11-23T00:39:35.314Z,40.66
2018-11-23T00:40:35.033Z,40.75
2018-11-23T00:41:35.012Z,41.13
2018-11-23T00:42:35.241Z,40.56
2018-11-23T00:43:34.960Z,40.56
2018-11-23T00:44:35.194Z,41.32
2018-11-23T00:45:35.639Z,40.66
2018-11-23T00:46:35.150Z,41.13
2018-11-23T00:47:35.154Z,41.32
2018-11-23T00:48:35.105Z,41.22
2018-11-23T00:49:35.090Z,40.56
2018-11-23T00:50:35.066Z,40.84
2018-11-23T00:51:35.039Z,40.84
2018-11-23T00:52:35.011Z,40.75
2018-11-23T00:53:34.734Z,40.94
2018-11-23T00:54:34.960Z,40.84
2018-11-23T00:55:34.686Z,40.84
2018-11-23T00:56:34.664Z,40.75
2018-11-23T00:57:34.893Z,40.84
2018-11-23T00:58:34.869Z,40.47
2018-11-23T00:59:34.878Z,40.19
2018-11-23T01:00:34.820Z,40.28
2018-11-23T01:01:34.800Z,40.47
2018-11-23T01:02:34.778Z,40.37
2018-11-23T01:03:34.753Z,40.19
2018-11-23T01:04:34.735Z,39.9
2018-11-23T01:05:34.455Z,39.81
2018-11-23T01:06:34.437Z,39.9
2018-11-23T01:07:34.671Z,39.9
2018-11-23T01:08:34.850Z,39.81
2018-11-23T01:09:34.615Z,39.62
2018-11-23T01:10:34.593Z,39.62
2018-11-23T01:11:34.578Z,39.14
2018-11-23T01:12:34.547Z,39.24
2018-11-23T01:13:34.273Z,39.14
2018-11-23T01:14:34.513Z,38.95
2018-11-23T01:15:34.477Z,38.76
2018-11-23T01:16:34.464Z,38.95
2018-11-23T01:17:34.431Z,38.86
2018-11-23T01:18:34.159Z,38.86
2018-11-23T01:19:34.129Z,38.95
2018-11-23T01:20:34.158Z,38.95
2018-11-23T01:21:34.106Z,38.76
2018-11-23T01:22:34.316Z,38.76
2018-11-23T01:23:34.037Z,38.95
2018-11-23T01:24:34.018Z,38.95
2018-11-23T01:25:33.998Z,38.86
2018-11-23T01:26:33.968Z,39.33
2018-11-23T01:27:34.203Z,38.95
2018-11-23T01:28:34.185Z,38.86
2018-11-23T01:29:34.161Z,39.33
2018-11-23T01:30:34.183Z,38.76
2018-11-23T01:31:34.111Z,38.76
2018-11-23T01:32:34.095Z,38.86
2018-11-23T01:33:34.072Z,38.95
2018-11-23T01:34:33.785Z,38.86
2018-11-23T01:35:34.046Z,38.95
2018-11-23T01:36:33.996Z,38.86
2018-11-23T01:37:33.717Z,38.95
2018-11-23T01:38:33.949Z,38.86
2018-11-23T01:39:33.928Z,38.86
2018-11-23T01:40:33.648Z,38.86
2018-11-23T01:41:33.875Z,38.95
2018-11-23T01:42:33.854Z,38.86
2018-11-23T01:43:33.831Z,38.95
2018-11-23T01:44:33.551Z,38.76
2018-11-23T01:45:33.527Z,38.95
2018-11-23T01:46:33.760Z,38.95
2018-11-23T01:47:33.740Z,38.76
2018-11-23T01:48:33.458Z,38.76
2018-11-23T01:49:33.693Z,39.05
2018-11-23T01:50:33.668Z,38.95
2018-11-23T01:51:33.393Z,38.67
2018-11-23T01:52:33.679Z,38.86
2018-11-23T01:53:33.641Z,38.86
2018-11-23T01:54:33.579Z,38.76
2018-11-23T01:55:33.551Z,38.76
2018-11-23T01:56:33.276Z,38.48
2018-11-23T01:57:33.504Z,38.48
2018-11-23T01:58:33.486Z,38.39
2018-11-23T01:59:33.459Z,38.48
2018-11-23T02:00:33.178Z,38.67
2018-11-23T02:01:33.413Z,38.48
2018-11-23T02:02:33.387Z,38.67
2018-11-23T02:03:33.117Z,38.57
2018-11-23T02:04:33.343Z,38.29
2018-11-23T02:05:33.084Z,38.39
2018-11-23T02:06:33.296Z,38.2
2018-11-23T02:07:33.016Z,38.39
2018-11-23T02:08:32.993Z,38.29
2018-11-23T02:09:32.975Z,38.29
2018-11-23T02:10:32.952Z,38.39
2018-11-23T02:11:33.185Z,38.29
2018-11-23T02:12:32.909Z,38.57
2018-11-23T02:13:33.132Z,38.48
2018-11-23T02:14:32.860Z,38.57
2018-11-23T02:15:33.088Z,38.57
2018-11-23T02:16:32.810Z,38.57
2018-11-23T02:17:33.045Z,38.76
2018-11-23T02:18:33.015Z,38.48
2018-11-23T02:19:32.999Z,38.84
2018-11-23T02:20:32.971Z,38.65
2018-11-23T02:21:32.945Z,38.75
2018-11-23T02:22:32.923Z,38.65
2018-11-23T02:23:32.651Z,38.56
2018-11-23T02:24:32.878Z,38.56
2018-11-23T02:25:32.852Z,38.65
2018-11-23T02:26:32.574Z,38.84
2018-11-23T02:27:32.809Z,38.84
2018-11-23T02:28:32.789Z,38.84
2018-11-23T02:29:32.761Z,38.93
2018-11-23T02:30:32.744Z,38.93
2018-11-23T02:31:32.713Z,39.03
2018-11-23T02:32:32.689Z,38.65
2018-11-23T02:33:32.413Z,38.56
2018-11-23T02:34:32.681Z,38.65
2018-11-23T02:35:32.619Z,38.93
2018-11-23T02:36:32.342Z,38.84
2018-11-23T02:37:32.580Z,38.84
2018-11-23T02:38:32.559Z,38.75
2018-11-23T02:39:32.526Z,38.56
2018-11-23T02:40:32.502Z,38.46
2018-11-23T02:41:32.483Z,38.56
2018-11-23T02:42:32.205Z,38.37
2018-11-23T02:43:32.429Z,38.18
2018-11-23T02:44:32.158Z,38.18
2018-11-23T02:45:32.129Z,37.99
2018-11-23T02:46:32.366Z,38.09
2018-11-23T02:47:32.341Z,37.9
2018-11-23T02:48:32.317Z,37.8
2018-11-23T02:49:32.291Z,37.61
2018-11-23T02:50:32.091Z,37.61
2018-11-23T02:51:31.993Z,37.61
2018-11-23T02:52:32.229Z,37.61
2018-11-23T02:53:32.201Z,37.52
2018-11-23T02:54:31.925Z,37.61
2018-11-23T02:55:32.155Z,37.52
2018-11-23T02:56:31.876Z,37.52
2018-11-23T02:57:31.858Z,37.33
2018-11-23T02:58:32.082Z,37.42
2018-11-23T02:59:32.060Z,37.14
2018-11-23T03:00:32.048Z,37.23
2018-11-23T03:01:32.011Z,37.33
2018-11-23T03:02:31.736Z,37.33
2018-11-23T03:03:31.969Z,37.23
2018-11-23T03:04:31.689Z,37.33
2018-11-23T03:05:31.920Z,37.04
2018-11-23T03:06:31.904Z,37.14
2018-11-23T03:07:31.876Z,37.14
2018-11-23T03:08:31.802Z,37.14
2018-11-23T03:09:31.824Z,37.14
2018-11-23T03:10:31.558Z,37.14
2018-11-23T03:11:31.788Z,37.23
2018-11-23T03:12:31.757Z,37.14
2018-11-23T03:13:31.734Z,37.33
2018-11-23T03:14:31.710Z,37.42
2018-11-23T03:15:31.437Z,37.14
2018-11-23T03:16:31.665Z,37.33
2018-11-23T03:17:31.388Z,37.23
2018-11-23T03:18:31.644Z,37.23
2018-11-23T03:19:31.598Z,37.33
2018-11-23T03:20:31.568Z,37.33
2018-11-23T03:21:31.291Z,37.33
2018-11-23T03:22:31.267Z,37.23
2018-11-23T03:23:31.255Z,37.42
2018-11-23T03:24:31.474Z,37.42
2018-11-23T03:25:31.449Z,37.42
2018-11-23T03:26:31.435Z,37.33
2018-11-23T03:27:31.403Z,37.33
2018-11-23T03:28:31.388Z,37.42
2018-11-23T03:29:31.110Z,37.33
2018-11-23T03:30:31.340Z,37.71
2018-11-23T03:31:31.059Z,37.52
2018-11-23T03:32:31.290Z,37.52
2018-11-23T03:33:31.266Z,37.61
2018-11-23T03:34:31.242Z,37.52
2018-11-23T03:35:31.219Z,37.61
2018-11-23T03:36:31.204Z,37.52
2018-11-23T03:37:31.172Z,37.61
2018-11-23T03:38:31.155Z,37.52
2018-11-23T03:39:36.568Z,37.52
2018-11-23T03:40:31.100Z,37.33
2018-11-23T03:41:31.079Z,37.33
2018-11-23T03:42:30.799Z,37.33
2018-11-23T03:43:31.031Z,37.23
2018-11-23T03:44:31.008Z,37.33
2018-11-23T03:45:30.738Z,37.23
2018-11-23T03:46:30.960Z,37.42
2018-11-23T03:47:30.679Z,37.33
2018-11-23T03:48:30.919Z,37.23
2018-11-23T03:49:30.896Z,37.23
2018-11-23T03:50:30.876Z,37.04
2018-11-23T03:51:30.848Z,37.33
2018-11-23T03:52:30.566Z,37.14
2018-11-23T03:53:30.799Z,36.95
2018-11-23T03:54:30.794Z,36.95
2018-11-23T03:55:30.749Z,36.66
2018-11-23T03:56:30.476Z,36.66
2018-11-23T03:57:30.706Z,36.57
2018-11-23T03:58:30.689Z,36.57
2018-11-23T03:59:30.666Z,36
2018-11-23T04:00:30.638Z,36.19
2018-11-23T04:01:30.611Z,36.1
2018-11-23T04:02:30.588Z,36
2018-11-23T04:03:30.563Z,36.38
2018-11-23T04:04:30.536Z,36.66
2018-11-23T04:05:30.522Z,36.66
2018-11-23T04:06:30.497Z,35.82
2018-11-23T04:07:30.474Z,35.82
2018-11-23T04:08:30.198Z,36
2018-11-23T04:09:30.434Z,36
2018-11-23T04:10:30.397Z,35.82
2018-11-23T04:11:30.379Z,36
2018-11-23T04:12:30.096Z,36.1
2018-11-23T04:13:30.073Z,36
2018-11-23T04:14:30.309Z,36
2018-11-23T04:15:30.024Z,36.19
2018-11-23T04:16:30.014Z,35.91
2018-11-23T04:17:30.238Z,36
2018-11-23T04:18:29.959Z,35.72
2018-11-23T04:19:30.186Z,35.53
2018-11-23T04:20:30.165Z,35.44
2018-11-23T04:21:30.139Z,35.63
2018-11-23T04:22:29.860Z,35.72
2018-11-23T04:23:29.840Z,35.82
2018-11-23T04:24:30.071Z,35.25
2018-11-23T04:25:30.044Z,35.35
2018-11-23T04:26:30.020Z,35.16
2018-11-23T04:27:30.005Z,35.25
2018-11-23T04:28:29.971Z,35.16
2018-11-23T04:29:29.964Z,35.16
2018-11-23T04:30:29.929Z,35.63
2018-11-23T04:31:29.915Z,35.72
2018-11-23T04:32:29.891Z,35.16
2018-11-23T04:33:29.855Z,35.35
2018-11-23T04:34:29.832Z,35.44
2018-11-23T04:35:29.561Z,35.35
2018-11-23T04:36:29.786Z,35.06
2018-11-23T04:37:29.766Z,35.06
2018-11-23T04:38:29.740Z,35.06
2018-11-23T04:39:29.483Z,35.06
2018-11-23T04:40:29.437Z,34.97
2018-11-23T04:41:29.676Z,35.06
2018-11-23T04:42:29.640Z,35.16
2018-11-23T04:43:29.371Z,34.78
2018-11-23T04:44:29.358Z,34.68
2018-11-23T04:45:29.573Z,34.68
2018-11-23T04:46:29.547Z,34.49
2018-11-23T04:47:29.530Z,34.02
2018-11-23T04:48:29.502Z,34.3
2018-11-23T04:49:29.480Z,34.21
2018-11-23T04:50:29.202Z,34.11
2018-11-23T04:51:29.436Z,34.21
2018-11-23T04:52:29.411Z,34.3
2018-11-23T04:53:29.397Z,34.21
2018-11-23T04:54:29.108Z,34.3
2018-11-23T04:55:29.082Z,34.21
2018-11-23T04:56:29.062Z,34.21
2018-11-23T04:57:29.296Z,34.3
2018-11-23T04:58:29.016Z,34.4
2018-11-23T04:59:29.253Z,34.4
2018-11-23T05:00:28.976Z,34.3
2018-11-23T05:01:29.203Z,34.3
2018-11-23T05:02:29.198Z,34.3
2018-11-23T05:03:29.148Z,34.21
2018-11-23T05:04:29.129Z,34.21
2018-11-23T05:05:29.100Z,34.21
2018-11-23T05:06:28.823Z,34.21
2018-11-23T05:07:29.060Z,34.11
2018-11-23T05:08:44.082Z,34.11
2018-11-23T05:09:29.013Z,34.59
2018-11-23T05:10:28.990Z,34.4
2018-11-23T05:11:28.969Z,34.68
2018-11-23T05:12:28.942Z,34.68
2018-11-23T05:13:28.982Z,34.78
2018-11-23T05:14:28.894Z,34.87
2018-11-23T05:15:28.614Z,34.68
2018-11-23T05:16:28.845Z,34.97
2018-11-23T05:17:28.833Z,34.87
2018-11-23T05:18:28.548Z,35.06
2018-11-23T05:19:28.524Z,34.87
2018-11-23T05:20:28.495Z,35.06
2018-11-23T05:21:28.730Z,34.87
2018-11-23T05:22:28.458Z,34.87
2018-11-23T05:23:28.700Z,34.87
2018-11-23T05:24:28.404Z,34.87
2018-11-23T05:25:28.630Z,35.06
2018-11-23T05:26:28.610Z,34.87
2018-11-23T05:27:28.333Z,34.97
2018-11-23T05:28:28.306Z,34.87
2018-11-23T05:29:28.542Z,34.97
2018-11-23T05:30:28.280Z,34.97
2018-11-23T05:31:28.499Z,34.97
2018-11-23T05:32:28.466Z,35.16
2018-11-23T05:33:28.445Z,35.06
2018-11-23T05:34:28.424Z,35.25
2018-11-23T05:35:28.191Z,35.16
2018-11-23T05:36:28.374Z,34.68
2018-11-23T05:37:28.101Z,34.68
2018-11-23T05:38:28.325Z,34.11
2018-11-23T05:39:28.306Z,34.3
2018-11-23T05:40:28.288Z,34.4
2018-11-23T05:41:28.261Z,34.4
2018-11-23T05:42:27.976Z,34.49
2018-11-23T05:43:27.957Z,34.3
2018-11-23T05:44:28.189Z,34.02
2018-11-23T05:45:28.170Z,33.83
2018-11-23T05:46:28.137Z,33.83
2018-11-23T05:47:28.115Z,34.02
2018-11-23T05:48:29.465Z,34.02
2018-11-23T05:49:27.813Z,34.11
2018-11-23T05:50:28.046Z,34.02
2018-11-23T05:51:28.020Z,34.02
2018-11-23T05:52:27.997Z,33.92
2018-11-23T05:53:27.973Z,34.02
2018-11-23T05:54:27.962Z,34.21
2018-11-23T05:55:27.679Z,34.02
2018-11-23T05:56:27.904Z,33.83
2018-11-23T05:57:27.880Z,33.92
2018-11-23T05:58:27.642Z,33.92
2018-11-23T05:59:27.833Z,33.92
2018-11-23T06:00:27.555Z,34.02
2018-11-23T06:01:27.788Z,34.02
2018-11-23T06:02:27.517Z,33.83
2018-11-23T06:03:27.491Z,33.92
2018-11-23T06:04:27.719Z,33.64
2018-11-23T06:05:27.688Z,33.64
2018-11-23T06:06:28.408Z,33.73
2018-11-23T06:07:27.643Z,33.73
2018-11-23T06:08:27.623Z,33.64
2018-11-23T06:09:27.351Z,33.83
2018-11-23T06:10:27.591Z,33.64
2018-11-23T06:11:27.552Z,33.64
2018-11-23T06:12:27.528Z,33.64
2018-11-23T06:13:27.509Z,33.45
2018-11-23T06:14:27.482Z,33.64
2018-11-23T06:15:27.459Z,33.36
2018-11-23T06:16:27.432Z,33.45
2018-11-23T06:17:27.410Z,33.26
2018-11-23T06:18:27.392Z,33.26
2018-11-23T06:19:27.365Z,33.07
2018-11-23T06:20:27.087Z,33.17
2018-11-23T06:21:27.315Z,33.36
2018-11-23T06:22:27.037Z,33.26
2018-11-23T06:23:27.266Z,33.17
2018-11-23T06:24:33.920Z,33.17
2018-11-23T06:25:27.237Z,33.26
2018-11-23T06:26:27.202Z,32.89
2018-11-23T06:27:26.923Z,32.89
2018-11-23T06:28:27.150Z,32.98
2018-11-23T06:29:26.872Z,33.07
2018-11-23T06:30:27.112Z,32.98
2018-11-23T06:31:27.084Z,32.79
2018-11-23T06:32:27.060Z,32.89
2018-11-23T06:33:27.034Z,32.89
2018-11-23T06:34:27.011Z,32.79
2018-11-23T06:35:26.733Z,32.89
2018-11-23T06:36:26.962Z,33.07
2018-11-23T06:37:26.943Z,32.89
2018-11-23T06:38:26.915Z,32.79
2018-11-23T06:39:26.638Z,32.6
2018-11-23T06:40:26.869Z,32.7
2018-11-23T06:41:26.599Z,32.7
2018-11-23T06:42:26.570Z,32.79
2018-11-23T06:43:26.544Z,32.7
2018-11-23T06:44:26.769Z,32.89
2018-11-23T06:45:26.749Z,32.7
2018-11-23T06:46:26.734Z,32.51
2018-11-23T06:47:26.707Z,32.51
2018-11-23T06:48:26.685Z,32.42
2018-11-23T06:49:26.660Z,32.42
2018-11-23T06:50:26.641Z,32.23
2018-11-23T06:51:26.355Z,32.32
2018-11-23T06:52:26.329Z,32.81
2018-11-23T06:53:26.560Z,32.7
2018-11-23T06:54:26.287Z,32.34
2018-11-23T06:55:26.519Z,32.32
2018-11-23T06:56:26.492Z,32.23
2018-11-23T06:57:26.469Z,32.51
2018-11-23T06:58:26.455Z,32.53
2018-11-23T06:59:26.192Z,32.51
2018-11-23T07:00:26.422Z,32.51
2018-11-23T07:01:26.118Z,32.62
2018-11-23T07:02:26.350Z,32.32
2018-11-23T07:03:26.329Z,32.23
2018-11-23T07:04:26.309Z,32.32
2018-11-23T07:05:26.029Z,32.23
2018-11-23T07:06:26.008Z,32.23
2018-11-23T07:07:26.231Z,32.23
2018-11-23T07:08:25.960Z,32.42
2018-11-23T07:09:26.193Z,32.42
2018-11-23T07:10:25.912Z,32.32
2018-11-23T07:11:26.141Z,32.32
2018-11-23T07:12:26.118Z,32.51
2018-11-23T07:13:26.098Z,32.32
2018-11-23T07:14:26.078Z,32.51
2018-11-23T07:15:26.048Z,32.51
2018-11-23T07:16:26.026Z,32.51
2018-11-23T07:17:25.747Z,32.51
2018-11-23T07:18:25.981Z,32.51
2018-11-23T07:19:25.713Z,32.42
2018-11-23T07:20:25.672Z,32.42
2018-11-23T07:21:25.648Z,32.23
2018-11-23T07:22:25.624Z,32.6
2018-11-23T07:23:25.604Z,32.23
2018-11-23T07:24:25.578Z,32.23
2018-11-23T07:25:25.577Z,32.23
2018-11-23T07:26:25.530Z,32.32
2018-11-23T07:27:25.508Z,32.23
2018-11-23T07:28:25.764Z,32.13
2018-11-23T07:29:25.466Z,32.23
2018-11-23T07:30:25.446Z,32.13
2018-11-23T07:31:25.672Z,32.04
2018-11-23T07:32:25.643Z,32.13
2018-11-23T07:33:25.628Z,32.04
2018-11-23T07:34:25.609Z,32.13
2018-11-23T07:35:25.576Z,32.04
2018-11-23T07:36:25.598Z,31.94
2018-11-23T07:37:25.283Z,31.85
2018-11-23T07:38:25.519Z,32.05
2018-11-23T07:39:25.485Z,32.05
2018-11-23T07:40:25.206Z,31.86
2018-11-23T07:41:25.440Z,31.86
2018-11-23T07:42:25.164Z,31.39
2018-11-23T07:43:25.439Z,31.29
2018-11-23T07:44:25.367Z,31.39
2018-11-23T07:45:25.348Z,31.39
2018-11-23T07:46:25.321Z,31.58
2018-11-23T07:47:25.041Z,31.58
2018-11-23T07:48:25.277Z,31.2
2018-11-23T07:49:25.252Z,31.2
2018-11-23T07:50:25.226Z,31.39
2018-11-23T07:51:25.202Z,31.39
2018-11-23T07:52:25.183Z,31.01
2018-11-23T07:53:25.160Z,31.01
2018-11-23T07:54:25.133Z,31.2
2018-11-23T07:55:25.117Z,31.1
2018-11-23T07:56:24.833Z,30.91
2018-11-23T07:57:25.069Z,30.82
2018-11-23T07:58:25.037Z,30.63
2018-11-23T07:59:25.023Z,30.82
2018-11-23T08:00:24.996Z,30.91
2018-11-23T08:01:24.716Z,30.63
2018-11-23T08:02:24.968Z,30.44
2018-11-23T08:03:24.925Z,30.44
2018-11-23T08:04:24.908Z,30.44
2018-11-23T08:05:24.879Z,30.54
2018-11-23T08:06:24.867Z,30.54
2018-11-23T08:07:24.833Z,30.82
2018-11-23T08:08:24.815Z,30.26
2018-11-23T08:09:24.790Z,30.26
2018-11-23T08:10:24.772Z,30.44
2018-11-23T08:11:24.741Z,30.26
2018-11-23T08:12:24.719Z,30.07
2018-11-23T08:13:24.697Z,30.07
2018-11-23T08:14:24.676Z,29.5
2018-11-23T08:15:24.648Z,29.6
2018-11-23T08:16:24.626Z,29.31
2018-11-23T08:17:24.607Z,29.31
2018-11-23T08:18:24.588Z,29.5
2018-11-23T08:19:24.302Z,29.22
2018-11-23T08:20:24.279Z,29.23
2018-11-23T08:21:24.256Z,28.95
2018-11-23T08:22:24.492Z,29.03
2018-11-23T08:23:24.463Z,29.04
2018-11-23T08:24:24.439Z,28.95
2018-11-23T08:25:24.424Z,28.95
2018-11-23T08:26:24.394Z,28.95
2018-11-23T08:27:24.119Z,28.95
2018-11-23T08:28:24.352Z,28.76
2018-11-23T08:29:24.330Z,28.85
2018-11-23T08:30:24.055Z,28.09
2018-11-23T08:31:24.280Z,28.38
2018-11-23T08:32:24.257Z,28.28
2018-11-23T08:33:24.237Z,28.38
2018-11-23T08:34:23.963Z,28.38
2018-11-23T08:35:23.941Z,27.91
2018-11-23T08:36:24.219Z,27.91
2018-11-23T08:37:24.144Z,28.28
2018-11-23T08:38:24.118Z,28.09
2018-11-23T08:39:24.109Z,28
2018-11-23T08:40:24.090Z,28
2018-11-23T08:41:24.054Z,28
2018-11-23T08:42:24.032Z,28.19
2018-11-23T08:43:24.012Z,28
2018-11-23T08:44:23.732Z,28
2018-11-23T08:45:23.982Z,27.91
2018-11-23T08:46:23.943Z,28.09
2018-11-23T08:47:23.663Z,28
2018-11-23T08:48:23.891Z,27.81
2018-11-23T08:49:23.615Z,27.62
2018-11-23T08:50:23.595Z,27.72
2018-11-23T08:51:23.579Z,27.62
2018-11-23T08:52:23.807Z,27.44
2018-11-23T08:53:30.195Z,27.72
2018-11-23T08:54:23.771Z,27.15
2018-11-23T08:55:23.482Z,26.96
2018-11-23T08:56:23.457Z,27.06
2018-11-23T08:57:23.696Z,26.87
2018-11-23T08:58:23.674Z,27.15
2018-11-23T08:59:23.654Z,26.88
2018-11-23T09:00:23.628Z,26.78
2018-11-23T09:01:23.602Z,26.97
2018-11-23T09:02:23.586Z,26.78
2018-11-23T09:03:23.305Z,26.59
2018-11-23T09:04:23.535Z,26.5
2018-11-23T09:05:23.262Z,26.69
2018-11-23T09:06:23.577Z,26.69
2018-11-23T09:07:23.468Z,26.31
2018-11-23T09:08:23.451Z,26.4
2018-11-23T09:09:23.374Z,26.21
2018-11-23T09:10:23.149Z,26.31
2018-11-23T09:11:23.128Z,26.21
2018-11-23T09:12:23.110Z,26.03
2018-11-23T09:13:23.397Z,26.12
2018-11-23T09:14:23.314Z,25.84
2018-11-23T09:15:23.041Z,25.84
2018-11-23T09:16:23.285Z,25.27
2018-11-23T09:17:23.250Z,24.33
2018-11-23T09:18:23.234Z,23.96
2018-11-23T09:19:22.954Z,24.15
2018-11-23T09:20:23.184Z,24.05
2018-11-23T09:21:22.909Z,24.24
2018-11-23T09:22:25.749Z,23.86
2018-11-23T09:23:22.865Z,24.16
2018-11-23T09:24:22.840Z,23.11
2018-11-23T09:25:23.075Z,23.59
2018-11-23T09:26:23.054Z,23.3
2018-11-23T09:27:23.031Z,22.55
2018-11-23T09:28:23.018Z,21.42
2018-11-23T09:29:24.045Z,20.01
2018-11-23T09:30:22.966Z,19.83
2018-11-23T09:31:22.947Z,21.15
2018-11-23T09:32:22.927Z,23.44
2018-11-23T09:33:22.906Z,25.14
2018-11-23T09:34:22.892Z,28.83
2018-11-23T09:35:22.651Z,32.91
2018-11-23T09:36:22.849Z,34.42
2018-11-23T09:37:22.822Z,35.75
2018-11-23T09:38:22.803Z,37.18
2018-11-23T09:39:22.783Z,40.97
2018-11-23T09:40:22.791Z,41.92
2018-11-23T09:41:22.739Z,41.44
2018-11-23T09:42:22.735Z,40.97
2018-11-23T09:43:22.702Z,42.39
2018-11-23T09:44:22.679Z,41.73
2018-11-23T09:45:22.431Z,44.01
2018-11-23T09:46:22.645Z,43.53
2018-11-23T09:47:22.370Z,45.14
2018-11-23T09:48:22.602Z,62.34
2018-11-23T09:49:22.441Z,61.87
2018-11-23T09:50:22.573Z,63.42
2018-11-23T09:51:22.542Z,80.83
2018-11-23T09:52:22.526Z,90.9
2018-11-23T09:53:22.266Z,97.78
2018-11-23T09:54:22.485Z,94.03
2018-11-23T09:55:22.465Z,99.99
2018-11-23T09:56:22.448Z,99.99
2018-11-23T09:57:22.429Z,99.99
2018-11-23T09:58:22.413Z,99.99
2018-11-23T09:59:22.394Z,99.99
2018-11-23T10:00:22.377Z,99.99
2018-11-23T10:01:22.111Z,99.99
2018-11-23T10:02:22.340Z,99.99
2018-11-23T10:03:22.324Z,99.99
2018-11-23T10:04:22.402Z,99.99
2018-11-23T10:05:22.290Z,99.99
2018-11-23T10:06:22.270Z,99.99
2018-11-23T10:07:22.003Z,99.99
2018-11-23T10:08:22.240Z,99.99
2018-11-23T10:09:22.214Z,99.99
2018-11-23T10:10:21.945Z,99.99
2018-11-23T10:11:22.236Z,99.99
2018-11-23T10:12:21.910Z,99.99
2018-11-23T10:13:22.149Z,99.99
2018-11-23T10:14:21.876Z,99.99
2018-11-23T10:15:22.115Z,99.99
2018-11-23T10:16:21.845Z,99.99
2018-11-23T10:17:21.836Z,99.99
2018-11-23T10:18:21.818Z,99.99
2018-11-23T10:19:22.059Z,99.99
2018-11-23T10:20:22.070Z,99.99
2018-11-23T10:21:22.068Z,99.99
2018-11-23T10:22:22.001Z,99.99
2018-11-23T10:23:21.739Z,99.99
2018-11-23T10:24:21.993Z,99.99
2018-11-23T10:25:21.705Z,99.99
2018-11-23T10:26:21.942Z,99.99
2018-11-23T10:27:21.684Z,99.99
2018-11-23T10:28:21.912Z,99.99
2018-11-23T10:29:21.637Z,99.99
2018-11-23T10:30:21.893Z,99.99
2018-11-23T10:31:21.860Z,99.99
2018-11-23T10:32:21.842Z,99.99
2018-11-23T10:33:21.571Z,99.99
2018-11-23T10:34:21.813Z,99.99
2018-11-23T10:35:21.796Z,99.99
2018-11-23T10:36:21.526Z,99.99
2018-11-23T10:37:21.765Z,99.99
2018-11-23T10:38:21.752Z,99.99
2018-11-23T10:39:21.741Z,99.99
2018-11-23T10:40:21.464Z,99.99
2018-11-23T10:41:21.722Z,99.99
2018-11-23T10:42:21.720Z,99.99
2018-11-23T10:43:21.419Z,99.99
2018-11-23T10:44:21.657Z,99.99
2018-11-23T10:45:21.643Z,99.99
2018-11-23T10:46:21.633Z,99.99
2018-11-23T10:47:21.637Z,99.99
2018-11-23T10:48:21.350Z,99.99
2018-11-23T10:49:21.588Z,99.99
2018-11-23T10:50:21.568Z,99.99
2018-11-23T10:51:21.550Z,99.99
2018-11-23T10:52:21.554Z,99.99
2018-11-23T10:53:21.526Z,99.99
2018-11-23T10:54:21.516Z,99.99
2018-11-23T10:55:21.499Z,99.99
2018-11-23T10:56:21.493Z,99.99
2018-11-23T10:57:21.472Z,99.99
2018-11-23T10:58:21.464Z,99.99
2018-11-23T10:59:21.442Z,99.99
2018-11-23T11:00:21.180Z,99.99
2018-11-23T11:01:21.422Z,99.99
2018-11-23T11:02:21.405Z,99.99
2018-11-23T11:03:21.139Z,99.99
2018-11-23T11:04:21.126Z,99.99
2018-11-23T11:05:21.114Z,99.99
2018-11-23T11:06:21.362Z,99.99
2018-11-23T11:07:21.345Z,99.99
2018-11-23T11:08:21.329Z,99.99
2018-11-23T11:09:21.521Z,99.99
2018-11-23T11:10:21.048Z,99.99
2018-11-23T11:11:21.319Z,99.99
2018-11-23T11:12:21.289Z,99.99
2018-11-23T11:13:21.281Z,99.99
2018-11-23T11:14:21.255Z,99.99
2018-11-23T11:15:21.239Z,99.99
2018-11-23T11:16:20.982Z,99.99
2018-11-23T11:17:21.217Z,99.99
2018-11-23T11:18:21.200Z,99.99
2018-11-23T11:19:21.204Z,99.99
2018-11-23T11:20:21.178Z,99.99
2018-11-23T11:21:21.169Z,99.99
2018-11-23T11:22:20.901Z,99.99
2018-11-23T11:23:20.883Z,99.99
2018-11-23T11:24:21.134Z,99.99
2018-11-23T11:25:20.866Z,99.99
2018-11-23T11:26:21.107Z,99.99
2018-11-23T11:27:20.844Z,99.99
2018-11-23T11:28:21.079Z,99.99
2018-11-23T11:29:21.071Z,99.99
2018-11-23T11:30:21.063Z,99.99
2018-11-23T11:31:21.049Z,99.99
2018-11-23T11:32:21.039Z,99.99
2018-11-23T11:33:21.029Z,99.99
2018-11-23T11:34:21.016Z,99.99
2018-11-23T11:35:21.011Z,99.99
2018-11-23T11:36:21.000Z,99.99
2018-11-23T11:37:21.032Z,99.99
2018-11-23T11:38:20.973Z,99.99
2018-11-23T11:39:20.964Z,99.99
2018-11-23T11:40:20.956Z,99.99
2018-11-23T11:41:20.946Z,99.99
2018-11-23T11:42:20.938Z,99.99
2018-11-23T11:43:20.919Z,99.99
2018-11-23T11:44:20.918Z,99.99
2018-11-23T11:45:20.653Z,99.99
2018-11-23T11:46:20.640Z,99.99
2018-11-23T11:47:20.881Z,99.99
2018-11-23T11:48:20.621Z,99.99
2018-11-23T11:49:20.869Z,99.99
2018-11-23T11:50:20.862Z,99.99
2018-11-23T11:51:20.849Z,99.99
2018-11-23T11:52:20.841Z,99.99
2018-11-23T11:53:20.831Z,99.99
2018-11-23T11:54:20.602Z,99.99
2018-11-23T11:55:20.815Z,99.99
2018-11-23T11:56:20.818Z,99.99
2018-11-23T11:57:20.800Z,99.99
2018-11-23T11:58:20.541Z,99.99
2018-11-23T11:59:20.785Z,99.99
2018-11-23T12:00:20.524Z,99.72
2018-11-23T12:01:20.768Z,96.37
2018-11-23T12:02:20.761Z,98.14
2018-11-23T12:03:20.752Z,96.84
2018-11-23T12:04:20.492Z,95.98
2018-11-23T12:05:20.739Z,95.51
2018-11-23T12:06:20.737Z,94.55
2018-11-23T12:07:20.733Z,95.51
2018-11-23T12:08:20.715Z,95.03
2018-11-23T12:09:20.711Z,95.31
2018-11-23T12:10:20.704Z,95.56
2018-11-23T12:11:20.697Z,93.54
2018-11-23T12:12:20.693Z,91.49
2018-11-23T12:13:20.680Z,91.34
2018-11-23T12:14:20.433Z,92.3
2018-11-23T12:15:20.670Z,93.16
2018-11-23T12:16:20.659Z,92.3
2018-11-23T12:17:20.400Z,89.57
2018-11-23T12:18:20.392Z,88.8
2018-11-23T12:19:20.390Z,88.9
2018-11-23T12:20:20.411Z,87.37
2018-11-23T12:21:20.630Z,88.32
2018-11-23T12:22:20.631Z,87.5
2018-11-23T12:23:20.618Z,87.7
2018-11-23T12:24:20.619Z,87.31
2018-11-23T12:25:20.603Z,86.07
2018-11-23T12:26:20.348Z,86.07
2018-11-23T12:27:20.586Z,86.83
2018-11-23T12:28:20.584Z,85.88
2018-11-23T12:29:20.578Z,85.3
2018-11-23T12:30:20.569Z,85.11
2018-11-23T12:31:20.567Z,83.91
2018-11-23T12:32:20.561Z,83.42
2018-11-23T12:33:20.555Z,83.42
2018-11-23T12:34:20.545Z,82.18
2018-11-23T12:35:20.281Z,83.09
2018-11-23T12:36:20.528Z,83.58
2018-11-23T12:37:20.281Z,83.09
2018-11-23T12:38:20.518Z,83.19
2018-11-23T12:39:20.277Z,82.42
2018-11-23T12:40:20.505Z,84.15
2018-11-23T12:41:20.503Z,83.67
2018-11-23T12:42:20.238Z,82.52
2018-11-23T12:43:20.486Z,83.58
2018-11-23T12:44:20.223Z,83.95
2018-11-23T12:45:20.468Z,83
2018-11-23T12:46:20.464Z,83.48
2018-11-23T12:47:20.204Z,84.15
2018-11-23T12:48:20.197Z,84.63
2018-11-23T12:49:20.193Z,83.86
2018-11-23T12:50:20.452Z,84.63
2018-11-23T12:51:20.430Z,84.91
2018-11-23T12:52:20.428Z,83.14
2018-11-23T12:53:20.175Z,81.79
2018-11-23T12:54:20.408Z,82.37
2018-11-23T12:55:20.149Z,81.31